sensor_id;sensor_type;location;lat;lon;timestamp;P1;durP1;ratioP1;P2;durP2;ratioP2
62990;SDS011;49084;48.204;16.202;2022-09-29T00:00:15;2.42;;;2.05;;
62990;SDS011;49084;48.204;16.202;2022-09-29T00:02:40;3.25;;;2.17;;
62990;SDS011;49084;48.204;16.202;2022-09-29T00:05:06;2.10;;;1.90;;
62990;SDS011;49084;48.204;16.202;2022-09-29T00:07:32;3.72;;;1.98;;
62990;SDS011;49084;48.204;16.202;2022-09-29T00:09:58;2.00;;;1.88;;
62990;SDS011;49084;48.204;16.202;2022-09-29T00:12:23;3.28;;;1.98;;
62990;SDS011;49084;48.204;16.202;2022-09-29T00:14:50;2.78;;;2.33;;
62990;SDS011;49084;48.204;16.202;2022-09-29T00:17:15;2.60;;;2.17;;
62990;SDS011;49084;48.204;16.202;2022-09-29T00:19:41;2.67;;;2.22;;
62990;SDS011;49084;48.204;16.202;2022-09-29T00:22:07;2.83;;;2.63;;
62990;SDS011;49084;48.204;16.202;2022-09-29T00:24:33;2.88;;;2.67;;
62990;SDS011;49084;48.204;16.202;2022-09-29T00:26:59;2.72;;;2.47;;
62990;SDS011;49084;48.204;16.202;2022-09-29T00:29:25;3.63;;;2.42;;
62990;SDS011;49084;48.204;16.202;2022-09-29T00:31:51;4.15;;;2.58;;
62990;SDS011;49084;48.204;16.202;2022-09-29T00:34:16;4.47;;;2.60;;
62990;SDS011;49084;48.204;16.202;2022-09-29T00:36:42;2.80;;;2.38;;
62990;SDS011;49084;48.204;16.202;2022-09-29T00:39:08;5.72;;;3.00;;
62990;SDS011;49084;48.204;16.202;2022-09-29T00:41:34;3.78;;;2.28;;
62990;SDS011;49084;48.204;16.202;2022-09-29T00:46:40;3.28;;;2.50;;
62990;SDS011;49084;48.204;16.202;2022-09-29T00:49:17;3.97;;;2.67;;
62990;SDS011;49084;48.204;16.202;2022-09-29T00:51:58;4.45;;;3.13;;
62990;SDS011;49084;48.204;16.202;2022-09-29T00:54:34;3.65;;;2.50;;
62990;SDS011;49084;48.204;16.202;2022-09-29T00:57:05;2.80;;;1.98;;
62990;SDS011;49084;48.204;16.202;2022-09-29T00:59:39;2.55;;;2.10;;
62990;SDS011;49084;48.204;16.202;2022-09-29T01:02:37;2.13;;;1.95;;
62990;SDS011;49084;48.204;16.202;2022-09-29T01:05:13;3.92;;;1.67;;
62990;SDS011;49084;48.204;16.202;2022-09-29T01:07:43;4.15;;;1.83;;
62990;SDS011;49084;48.204;16.202;2022-09-29T01:10:10;2.15;;;1.60;;
62990;SDS011;49084;48.204;16.202;2022-09-29T01:12:38;1.33;;;1.23;;
62990;SDS011;49084;48.204;16.202;2022-09-29T01:15:03;2.15;;;1.27;;
62990;SDS011;49084;48.204;16.202;2022-09-29T01:17:29;2.60;;;1.50;;
62990;SDS011;49084;48.204;16.202;2022-09-29T01:28:46;1.23;;;1.13;;
62990;SDS011;49084;48.204;16.202;2022-09-29T01:31:29;1.55;;;1.20;;
62990;SDS011;49084;48.204;16.202;2022-09-29T01:40:32;1.98;;;1.40;;
62990;SDS011;49084;48.204;16.202;2022-09-29T01:42:56;3.03;;;1.95;;
62990;SDS011;49084;48.204;16.202;2022-09-29T01:45:33;2.28;;;2.08;;
62990;SDS011;49084;48.204;16.202;2022-09-29T01:48:04;3.80;;;1.90;;
62990;SDS011;49084;48.204;16.202;2022-09-29T01:50:44;1.67;;;1.48;;
62990;SDS011;49084;48.204;16.202;2022-09-29T01:53:14;1.70;;;1.60;;
62990;SDS011;49084;48.204;16.202;2022-09-29T01:55:49;2.42;;;1.83;;
62990;SDS011;49084;48.204;16.202;2022-09-29T01:58:19;2.38;;;2.00;;
62990;SDS011;49084;48.204;16.202;2022-09-29T02:00:53;2.28;;;1.88;;
62990;SDS011;49084;48.204;16.202;2022-09-29T02:05:58;1.90;;;1.65;;
62990;SDS011;49084;48.204;16.202;2022-09-29T02:08:36;2.05;;;1.85;;
62990;SDS011;49084;48.204;16.202;2022-09-29T02:11:10;2.45;;;1.30;;
62990;SDS011;49084;48.204;16.202;2022-09-29T02:13:45;2.70;;;1.55;;
62990;SDS011;49084;48.204;16.202;2022-09-29T02:16:25;2.17;;;1.55;;
62990;SDS011;49084;48.204;16.202;2022-09-29T02:19:02;1.88;;;1.45;;
62990;SDS011;49084;48.204;16.202;2022-09-29T02:21:34;5.75;;;2.03;;
62990;SDS011;49084;48.204;16.202;2022-09-29T02:24:00;1.85;;;1.63;;
62990;SDS011;49084;48.204;16.202;2022-09-29T02:26:27;2.53;;;1.80;;
62990;SDS011;49084;48.204;16.202;2022-09-29T02:28:58;2.55;;;2.08;;
62990;SDS011;49084;48.204;16.202;2022-09-29T02:31:26;3.30;;;1.90;;
62990;SDS011;49084;48.204;16.202;2022-09-29T02:33:52;3.83;;;2.58;;
62990;SDS011;49084;48.204;16.202;2022-09-29T02:41:52;2.50;;;2.25;;
62990;SDS011;49084;48.204;16.202;2022-09-29T02:47:22;4.50;;;2.33;;
62990;SDS011;49084;48.204;16.202;2022-09-29T02:55:26;6.20;;;2.20;;
62990;SDS011;49084;48.204;16.202;2022-09-29T02:57:58;3.80;;;2.10;;
62990;SDS011;49084;48.204;16.202;2022-09-29T03:00:34;3.63;;;2.33;;
62990;SDS011;49084;48.204;16.202;2022-09-29T03:03:01;3.38;;;2.92;;
62990;SDS011;49084;48.204;16.202;2022-09-29T03:05:26;7.88;;;4.28;;
62990;SDS011;49084;48.204;16.202;2022-09-29T03:07:52;6.03;;;4.45;;
62990;SDS011;49084;48.204;16.202;2022-09-29T03:10:18;7.55;;;4.35;;
62990;SDS011;49084;48.204;16.202;2022-09-29T03:12:44;6.70;;;4.93;;
62990;SDS011;49084;48.204;16.202;2022-09-29T03:15:10;7.43;;;5.78;;
62990;SDS011;49084;48.204;16.202;2022-09-29T03:17:36;7.53;;;5.10;;
62990;SDS011;49084;48.204;16.202;2022-09-29T03:20:03;6.57;;;5.30;;
62990;SDS011;49084;48.204;16.202;2022-09-29T03:22:29;7.63;;;4.90;;
62990;SDS011;49084;48.204;16.202;2022-09-29T03:24:55;6.30;;;5.28;;
62990;SDS011;49084;48.204;16.202;2022-09-29T03:27:21;6.03;;;4.70;;
62990;SDS011;49084;48.204;16.202;2022-09-29T03:29:46;5.78;;;5.20;;
62990;SDS011;49084;48.204;16.202;2022-09-29T03:32:12;7.20;;;4.82;;
62990;SDS011;49084;48.204;16.202;2022-09-29T03:34:38;6.93;;;4.90;;
62990;SDS011;49084;48.204;16.202;2022-09-29T03:37:03;5.53;;;4.07;;
62990;SDS011;49084;48.204;16.202;2022-09-29T03:39:29;5.50;;;4.03;;
62990;SDS011;49084;48.204;16.202;2022-09-29T03:41:55;5.32;;;3.72;;
62990;SDS011;49084;48.204;16.202;2022-09-29T03:44:21;4.68;;;3.53;;
62990;SDS011;49084;48.204;16.202;2022-09-29T03:46:46;5.78;;;3.60;;
62990;SDS011;49084;48.204;16.202;2022-09-29T03:49:12;5.68;;;3.33;;
62990;SDS011;49084;48.204;16.202;2022-09-29T03:51:39;4.32;;;2.80;;
62990;SDS011;49084;48.204;16.202;2022-09-29T03:54:06;4.47;;;2.38;;
62990;SDS011;49084;48.204;16.202;2022-09-29T03:56:32;4.75;;;2.80;;
62990;SDS011;49084;48.204;16.202;2022-09-29T03:58:58;2.70;;;2.50;;
62990;SDS011;49084;48.204;16.202;2022-09-29T04:01:24;3.22;;;2.17;;
62990;SDS011;49084;48.204;16.202;2022-09-29T04:03:49;4.07;;;2.42;;
62990;SDS011;49084;48.204;16.202;2022-09-29T04:06:15;3.47;;;1.95;;
62990;SDS011;49084;48.204;16.202;2022-09-29T04:08:41;2.15;;;1.90;;
62990;SDS011;49084;48.204;16.202;2022-09-29T04:11:07;5.28;;;2.33;;
62990;SDS011;49084;48.204;16.202;2022-09-29T04:13:33;3.08;;;2.13;;
62990;SDS011;49084;48.204;16.202;2022-09-29T04:15:59;4.10;;;2.30;;
62990;SDS011;49084;48.204;16.202;2022-09-29T04:18:27;3.90;;;2.03;;
62990;SDS011;49084;48.204;16.202;2022-09-29T04:20:52;2.35;;;1.92;;
62990;SDS011;49084;48.204;16.202;2022-09-29T04:23:18;4.88;;;2.00;;
62990;SDS011;49084;48.204;16.202;2022-09-29T04:25:44;3.50;;;2.05;;
62990;SDS011;49084;48.204;16.202;2022-09-29T04:28:10;1.90;;;1.75;;
62990;SDS011;49084;48.204;16.202;2022-09-29T04:30:37;3.75;;;1.60;;
62990;SDS011;49084;48.204;16.202;2022-09-29T04:33:03;2.25;;;1.48;;
62990;SDS011;49084;48.204;16.202;2022-09-29T04:35:29;3.38;;;1.83;;
62990;SDS011;49084;48.204;16.202;2022-09-29T04:37:55;2.72;;;1.90;;
62990;SDS011;49084;48.204;16.202;2022-09-29T04:40:21;1.45;;;1.35;;
62990;SDS011;49084;48.204;16.202;2022-09-29T04:49:07;1.73;;;0.90;;
62990;SDS011;49084;48.204;16.202;2022-09-29T04:51:33;2.30;;;0.88;;
62990;SDS011;49084;48.204;16.202;2022-09-29T04:53:59;4.25;;;1.02;;
62990;SDS011;49084;48.204;16.202;2022-09-29T04:56:26;2.35;;;1.00;;
62990;SDS011;49084;48.204;16.202;2022-09-29T04:58:55;1.30;;;1.20;;
62990;SDS011;49084;48.204;16.202;2022-09-29T05:01:24;1.70;;;1.02;;
62990;SDS011;49084;48.204;16.202;2022-09-29T05:07:27;1.90;;;1.40;;
62990;SDS011;49084;48.204;16.202;2022-09-29T05:20:10;2.50;;;1.30;;
62990;SDS011;49084;48.204;16.202;2022-09-29T05:25:02;3.47;;;1.70;;
62990;SDS011;49084;48.204;16.202;2022-09-29T06:00:14;3.25;;;2.65;;
62990;SDS011;49084;48.204;16.202;2022-09-29T06:02:39;6.43;;;2.08;;
62990;SDS011;49084;48.204;16.202;2022-09-29T06:05:05;2.85;;;1.85;;
62990;SDS011;49084;48.204;16.202;2022-09-29T06:07:31;6.60;;;1.90;;
62990;SDS011;49084;48.204;16.202;2022-09-29T06:09:57;5.15;;;1.88;;
62990;SDS011;49084;48.204;16.202;2022-09-29T06:12:22;4.90;;;2.30;;
62990;SDS011;49084;48.204;16.202;2022-09-29T06:18:21;6.80;;;2.45;;
62990;SDS011;49084;48.204;16.202;2022-09-29T06:24:12;5.50;;;2.08;;
62990;SDS011;49084;48.204;16.202;2022-09-29T06:30:04;4.45;;;2.13;;
62990;SDS011;49084;48.204;16.202;2022-09-29T06:39:23;4.50;;;2.22;;
62990;SDS011;49084;48.204;16.202;2022-09-29T06:41:49;6.22;;;2.20;;
62990;SDS011;49084;48.204;16.202;2022-09-29T06:44:21;2.05;;;1.80;;
62990;SDS011;49084;48.204;16.202;2022-09-29T06:46:49;3.20;;;1.95;;
62990;SDS011;49084;48.204;16.202;2022-09-29T06:49:16;4.85;;;1.50;;
62990;SDS011;49084;48.204;16.202;2022-09-29T06:51:42;2.65;;;1.63;;
62990;SDS011;49084;48.204;16.202;2022-09-29T06:54:09;3.75;;;1.75;;
62990;SDS011;49084;48.204;16.202;2022-09-29T06:56:36;2.35;;;1.40;;
62990;SDS011;49084;48.204;16.202;2022-09-29T06:59:02;7.47;;;1.52;;
62990;SDS011;49084;48.204;16.202;2022-09-29T07:01:28;3.00;;;1.10;;
62990;SDS011;49084;48.204;16.202;2022-09-29T07:03:53;4.20;;;1.10;;
62990;SDS011;49084;48.204;16.202;2022-09-29T07:06:19;3.58;;;1.17;;
62990;SDS011;49084;48.204;16.202;2022-09-29T07:08:44;2.55;;;1.38;;
62990;SDS011;49084;48.204;16.202;2022-09-29T07:11:10;2.78;;;1.77;;
62990;SDS011;49084;48.204;16.202;2022-09-29T07:13:36;3.20;;;1.42;;
62990;SDS011;49084;48.204;16.202;2022-09-29T07:16:03;5.20;;;1.48;;
62990;SDS011;49084;48.204;16.202;2022-09-29T07:18:31;4.40;;;1.88;;
62990;SDS011;49084;48.204;16.202;2022-09-29T07:20:58;1.13;;;1.00;;
62990;SDS011;49084;48.204;16.202;2022-09-29T07:23:24;4.50;;;2.03;;
62990;SDS011;49084;48.204;16.202;2022-09-29T07:25:51;2.30;;;1.25;;
62990;SDS011;49084;48.204;16.202;2022-09-29T07:28:17;2.08;;;1.20;;
62990;SDS011;49084;48.204;16.202;2022-09-29T07:30:43;5.78;;;1.45;;
62990;SDS011;49084;48.204;16.202;2022-09-29T07:33:09;1.27;;;1.08;;
62990;SDS011;49084;48.204;16.202;2022-09-29T07:35:34;2.00;;;1.23;;
62990;SDS011;49084;48.204;16.202;2022-09-29T07:38:00;1.35;;;1.25;;
62990;SDS011;49084;48.204;16.202;2022-09-29T07:40:25;1.67;;;1.20;;
62990;SDS011;49084;48.204;16.202;2022-09-29T07:42:52;2.13;;;1.30;;
62990;SDS011;49084;48.204;16.202;2022-09-29T07:45:18;1.30;;;1.20;;
62990;SDS011;49084;48.204;16.202;2022-09-29T07:47:44;2.25;;;1.42;;
62990;SDS011;49084;48.204;16.202;2022-09-29T07:50:10;3.13;;;1.40;;
62990;SDS011;49084;48.204;16.202;2022-09-29T07:52:37;3.25;;;1.63;;
62990;SDS011;49084;48.204;16.202;2022-09-29T07:55:02;4.35;;;1.50;;
62990;SDS011;49084;48.204;16.202;2022-09-29T07:57:29;2.05;;;1.70;;
62990;SDS011;49084;48.204;16.202;2022-09-29T07:59:55;1.35;;;1.20;;
62990;SDS011;49084;48.204;16.202;2022-09-29T08:02:22;2.72;;;1.17;;
62990;SDS011;49084;48.204;16.202;2022-09-29T08:04:49;1.42;;;0.60;;
62990;SDS011;49084;48.204;16.202;2022-09-29T08:07:14;2.33;;;0.80;;
62990;SDS011;49084;48.204;16.202;2022-09-29T08:09:40;1.88;;;0.50;;
62990;SDS011;49084;48.204;16.202;2022-09-29T08:12:06;0.57;;;0.45;;
62990;SDS011;49084;48.204;16.202;2022-09-29T08:14:32;1.48;;;0.55;;
62990;SDS011;49084;48.204;16.202;2022-09-29T08:16:59;1.48;;;0.60;;
62990;SDS011;49084;48.204;16.202;2022-09-29T08:19:24;3.00;;;0.60;;
62990;SDS011;49084;48.204;16.202;2022-09-29T08:21:51;1.60;;;0.75;;
62990;SDS011;49084;48.204;16.202;2022-09-29T08:24:17;0.85;;;0.50;;
62990;SDS011;49084;48.204;16.202;2022-09-29T08:26:43;1.75;;;1.05;;
62990;SDS011;49084;48.204;16.202;2022-09-29T08:29:09;0.50;;;0.50;;
62990;SDS011;49084;48.204;16.202;2022-09-29T08:31:38;0.57;;;0.43;;
62990;SDS011;49084;48.204;16.202;2022-09-29T08:34:04;0.30;;;0.30;;
62990;SDS011;49084;48.204;16.202;2022-09-29T08:36:30;2.85;;;0.50;;
62990;SDS011;49084;48.204;16.202;2022-09-29T08:38:56;0.57;;;0.57;;
62990;SDS011;49084;48.204;16.202;2022-09-29T08:44:26;0.50;;;0.40;;
62990;SDS011;49084;48.204;16.202;2022-09-29T08:46:53;0.55;;;0.40;;
62990;SDS011;49084;48.204;16.202;2022-09-29T08:52:19;3.25;;;0.70;;
62990;SDS011;49084;48.204;16.202;2022-09-29T08:54:55;1.38;;;0.50;;
62990;SDS011;49084;48.204;16.202;2022-09-29T08:57:46;3.60;;;0.73;;
62990;SDS011;49084;48.204;16.202;2022-09-29T09:00:15;3.22;;;0.63;;
62990;SDS011;49084;48.204;16.202;2022-09-29T09:13:47;0.50;;;0.50;;
62990;SDS011;49084;48.204;16.202;2022-09-29T09:16:51;1.17;;;0.50;;
62990;SDS011;49084;48.204;16.202;2022-09-29T09:19:34;1.00;;;0.40;;
62990;SDS011;49084;48.204;16.202;2022-09-29T09:22:13;0.60;;;0.60;;
62990;SDS011;49084;48.204;16.202;2022-09-29T09:24:48;0.55;;;0.50;;
62990;SDS011;49084;48.204;16.202;2022-09-29T09:27:23;0.40;;;0.30;;
62990;SDS011;49084;48.204;16.202;2022-09-29T09:29:56;3.47;;;1.50;;
62990;SDS011;49084;48.204;16.202;2022-09-29T09:32:31;0.52;;;0.50;;
62990;SDS011;49084;48.204;16.202;2022-09-29T09:35:24;3.08;;;1.25;;
62990;SDS011;49084;48.204;16.202;2022-09-29T09:38:01;0.40;;;0.40;;
62990;SDS011;49084;48.204;16.202;2022-09-29T09:40:47;2.05;;;0.68;;
62990;SDS011;49084;48.204;16.202;2022-09-29T09:43:18;1.30;;;0.50;;
62990;SDS011;49084;48.204;16.202;2022-09-29T09:48:25;0.82;;;0.60;;
62990;SDS011;49084;48.204;16.202;2022-09-29T09:51:01;2.17;;;0.67;;
62990;SDS011;49084;48.204;16.202;2022-09-29T09:53:45;0.70;;;0.60;;
62990;SDS011;49084;48.204;16.202;2022-09-29T10:01:39;1.38;;;0.40;;
62990;SDS011;49084;48.204;16.202;2022-09-29T10:04:05;0.80;;;0.30;;
62990;SDS011;49084;48.204;16.202;2022-09-29T10:06:36;0.68;;;0.20;;
62990;SDS011;49084;48.204;16.202;2022-09-29T10:09:01;0.30;;;0.30;;
62990;SDS011;49084;48.204;16.202;2022-09-29T10:11:28;3.70;;;0.50;;
62990;SDS011;49084;48.204;16.202;2022-09-29T10:16:45;4.40;;;0.30;;
62990;SDS011;49084;48.204;16.202;2022-09-29T10:19:20;0.20;;;0.20;;
62990;SDS011;49084;48.204;16.202;2022-09-29T10:22:12;0.10;;;0.08;;
62990;SDS011;49084;48.204;16.202;2022-09-29T10:24:39;29.42;;;2.00;;
62990;SDS011;49084;48.204;16.202;2022-09-29T10:27:04;10.27;;;1.33;;
62990;SDS011;49084;48.204;16.202;2022-09-29T10:29:38;0.57;;;0.20;;
62990;SDS011;49084;48.204;16.202;2022-09-29T10:32:08;2.58;;;0.40;;
62990;SDS011;49084;48.204;16.202;2022-09-29T10:34:38;10.68;;;1.48;;
62990;SDS011;49084;48.204;16.202;2022-09-29T10:39:50;0.20;;;0.15;;
62990;SDS011;49084;48.204;16.202;2022-09-29T10:42:30;0.10;;;0.05;;
62990;SDS011;49084;48.204;16.202;2022-09-29T10:45:15;0.25;;;0.10;;
62990;SDS011;49084;48.204;16.202;2022-09-29T10:50:29;0.30;;;0.13;;
62990;SDS011;49084;48.204;16.202;2022-09-29T10:52:57;0.32;;;0.30;;
62990;SDS011;49084;48.204;16.202;2022-09-29T10:55:32;2.28;;;0.25;;
62990;SDS011;49084;48.204;16.202;2022-09-29T10:58:05;0.10;;;0.10;;
62990;SDS011;49084;48.204;16.202;2022-09-29T11:01:01;1.27;;;0.10;;
62990;SDS011;49084;48.204;16.202;2022-09-29T11:03:36;0.20;;;0.10;;
62990;SDS011;49084;48.204;16.202;2022-09-29T11:06:08;0.10;;;0.10;;
62990;SDS011;49084;48.204;16.202;2022-09-29T11:11:35;0.10;;;0.00;;
62990;SDS011;49084;48.204;16.202;2022-09-29T11:14:02;0.33;;;0.03;;
62990;SDS011;49084;48.204;16.202;2022-09-29T11:16:35;0.10;;;0.10;;
62990;SDS011;49084;48.204;16.202;2022-09-29T11:24:12;1.42;;;0.20;;
62990;SDS011;49084;48.204;16.202;2022-09-29T11:26:53;0.90;;;0.05;;
62990;SDS011;49084;48.204;16.202;2022-09-29T11:29:23;0.47;;;0.10;;
62990;SDS011;49084;48.204;16.202;2022-09-29T11:32:10;3.08;;;0.25;;
62990;SDS011;49084;48.204;16.202;2022-09-29T11:34:42;0.47;;;0.10;;
62990;SDS011;49084;48.204;16.202;2022-09-29T11:37:25;0.20;;;0.10;;
62990;SDS011;49084;48.204;16.202;2022-09-29T11:40:00;2.70;;;0.30;;
62990;SDS011;49084;48.204;16.202;2022-09-29T11:45:33;2.42;;;0.40;;
62990;SDS011;49084;48.204;16.202;2022-09-29T12:05:03;0.35;;;0.10;;
62990;SDS011;49084;48.204;16.202;2022-09-29T12:16:26;0.82;;;0.20;;
62990;SDS011;49084;48.204;16.202;2022-09-29T12:19:02;0.35;;;0.10;;
62990;SDS011;49084;48.204;16.202;2022-09-29T12:21:35;6.30;;;0.73;;
62990;SDS011;49084;48.204;16.202;2022-09-29T12:24:05;3.25;;;0.50;;
62990;SDS011;49084;48.204;16.202;2022-09-29T12:26:39;2.78;;;0.90;;
62990;SDS011;49084;48.204;16.202;2022-09-29T12:29:30;1.35;;;0.82;;
62990;SDS011;49084;48.204;16.202;2022-09-29T12:31:52;4.93;;;0.88;;
62990;SDS011;49084;48.204;16.202;2022-09-29T12:34:43;2.28;;;0.50;;
62990;SDS011;49084;48.204;16.202;2022-09-29T12:51:01;1.02;;;0.50;;
62990;SDS011;49084;48.204;16.202;2022-09-29T12:54:13;3.47;;;1.13;;
62990;SDS011;49084;48.204;16.202;2022-09-29T12:56:31;1.55;;;0.40;;
62990;SDS011;49084;48.204;16.202;2022-09-29T13:01:48;1.42;;;0.63;;
62990;SDS011;49084;48.204;16.202;2022-09-29T13:13:05;1.90;;;0.85;;
62990;SDS011;49084;48.204;16.202;2022-09-29T13:26:11;7.93;;;0.90;;
62990;SDS011;49084;48.204;16.202;2022-09-29T13:33:37;1.33;;;0.90;;
62990;SDS011;49084;48.204;16.202;2022-09-29T13:36:04;0.93;;;0.70;;
62990;SDS011;49084;48.204;16.202;2022-09-29T13:38:35;1.20;;;0.68;;
62990;SDS011;49084;48.204;16.202;2022-09-29T13:41:10;1.30;;;0.52;;
62990;SDS011;49084;48.204;16.202;2022-09-29T13:44:01;2.58;;;0.90;;
62990;SDS011;49084;48.204;16.202;2022-09-29T13:49:11;1.70;;;0.70;;
62990;SDS011;49084;48.204;16.202;2022-09-29T13:51:40;1.80;;;0.88;;
62990;SDS011;49084;48.204;16.202;2022-09-29T13:57:19;1.55;;;0.57;;
62990;SDS011;49084;48.204;16.202;2022-09-29T14:02:39;2.55;;;0.73;;
62990;SDS011;49084;48.204;16.202;2022-09-29T14:16:19;1.85;;;0.68;;
62990;SDS011;49084;48.204;16.202;2022-09-29T14:19:06;3.15;;;0.90;;
62990;SDS011;49084;48.204;16.202;2022-09-29T14:30:10;1.80;;;0.60;;
62990;SDS011;49084;48.204;16.202;2022-09-29T14:33:03;3.55;;;0.80;;
62990;SDS011;49084;48.204;16.202;2022-09-29T14:35:34;6.28;;;1.13;;
62990;SDS011;49084;48.204;16.202;2022-09-29T14:40:37;1.25;;;0.85;;
62990;SDS011;49084;48.204;16.202;2022-09-29T14:43:13;1.95;;;0.70;;
62990;SDS011;49084;48.204;16.202;2022-09-29T14:51:49;1.83;;;0.70;;
62990;SDS011;49084;48.204;16.202;2022-09-29T15:00:14;2.10;;;1.70;;
62990;SDS011;49084;48.204;16.202;2022-09-29T15:02:45;2.53;;;1.33;;
62990;SDS011;49084;48.204;16.202;2022-09-29T15:08:18;4.32;;;1.30;;
62990;SDS011;49084;48.204;16.202;2022-09-29T15:10:53;1.20;;;0.70;;
62990;SDS011;49084;48.204;16.202;2022-09-29T15:15:59;1.92;;;0.90;;
62990;SDS011;49084;48.204;16.202;2022-09-29T15:21:41;2.90;;;1.42;;
62990;SDS011;49084;48.204;16.202;2022-09-29T15:27:11;1.38;;;0.80;;
62990;SDS011;49084;48.204;16.202;2022-09-29T15:29:39;2.63;;;1.25;;
62990;SDS011;49084;48.204;16.202;2022-09-29T15:32:28;5.15;;;1.05;;
62990;SDS011;49084;48.204;16.202;2022-09-29T15:35:00;12.55;;;1.30;;
62990;SDS011;49084;48.204;16.202;2022-09-29T15:37:50;5.70;;;1.75;;
62990;SDS011;49084;48.204;16.202;2022-09-29T15:40:21;2.83;;;0.82;;
62990;SDS011;49084;48.204;16.202;2022-09-29T15:42:49;1.03;;;1.03;;
62990;SDS011;49084;48.204;16.202;2022-09-29T15:48:00;4.57;;;0.98;;
62990;SDS011;49084;48.204;16.202;2022-09-29T15:50:31;2.60;;;1.00;;
62990;SDS011;49084;48.204;16.202;2022-09-29T15:53:05;2.08;;;1.08;;
62990;SDS011;49084;48.204;16.202;2022-09-29T15:55:32;0.90;;;0.77;;
62990;SDS011;49084;48.204;16.202;2022-09-29T15:57:58;1.60;;;1.00;;
62990;SDS011;49084;48.204;16.202;2022-09-29T16:08:44;1.13;;;0.70;;
62990;SDS011;49084;48.204;16.202;2022-09-29T16:11:17;1.70;;;0.70;;
62990;SDS011;49084;48.204;16.202;2022-09-29T16:13:52;1.50;;;0.60;;
62990;SDS011;49084;48.204;16.202;2022-09-29T16:16:36;4.95;;;0.90;;
62990;SDS011;49084;48.204;16.202;2022-09-29T16:19:14;5.55;;;0.98;;
62990;SDS011;49084;48.204;16.202;2022-09-29T16:21:48;2.10;;;0.50;;
62990;SDS011;49084;48.204;16.202;2022-09-29T16:24:19;0.65;;;0.65;;
62990;SDS011;49084;48.204;16.202;2022-09-29T16:31:40;4.63;;;1.10;;
62990;SDS011;49084;48.204;16.202;2022-09-29T16:34:29;6.73;;;1.23;;
62990;SDS011;49084;48.204;16.202;2022-09-29T16:36:59;5.05;;;0.93;;
62990;SDS011;49084;48.204;16.202;2022-09-29T16:39:32;5.82;;;1.08;;
62990;SDS011;49084;48.204;16.202;2022-09-29T16:42:26;3.83;;;1.45;;
62990;SDS011;49084;48.204;16.202;2022-09-29T16:44:52;3.60;;;1.35;;
62990;SDS011;49084;48.204;16.202;2022-09-29T16:47:20;2.35;;;1.50;;
62990;SDS011;49084;48.204;16.202;2022-09-29T16:50:12;3.58;;;1.70;;
62990;SDS011;49084;48.204;16.202;2022-09-29T16:52:42;4.97;;;1.70;;
62990;SDS011;49084;48.204;16.202;2022-09-29T17:00:32;2.95;;;1.40;;
62990;SDS011;49084;48.204;16.202;2022-09-29T17:03:00;2.72;;;1.30;;
62990;SDS011;49084;48.204;16.202;2022-09-29T17:08:03;1.67;;;0.75;;
62990;SDS011;49084;48.204;16.202;2022-09-29T17:10:31;2.08;;;0.80;;
62990;SDS011;49084;48.204;16.202;2022-09-29T17:12:57;2.40;;;1.35;;
62990;SDS011;49084;48.204;16.202;2022-09-29T17:15:23;3.03;;;1.42;;
62990;SDS011;49084;48.204;16.202;2022-09-29T17:17:50;3.15;;;1.50;;
62990;SDS011;49084;48.204;16.202;2022-09-29T17:20:20;2.88;;;0.95;;
62990;SDS011;49084;48.204;16.202;2022-09-29T17:22:53;1.95;;;1.13;;
62990;SDS011;49084;48.204;16.202;2022-09-29T17:25:20;2.97;;;1.20;;
62990;SDS011;49084;48.204;16.202;2022-09-29T17:27:46;4.43;;;1.52;;
62990;SDS011;49084;48.204;16.202;2022-09-29T17:30:30;5.95;;;2.22;;
62990;SDS011;49084;48.204;16.202;2022-09-29T17:32:56;5.43;;;1.27;;
62990;SDS011;49084;48.204;16.202;2022-09-29T17:35:26;2.45;;;1.50;;
62990;SDS011;49084;48.204;16.202;2022-09-29T17:37:53;1.67;;;1.50;;
62990;SDS011;49084;48.204;16.202;2022-09-29T17:40:30;2.88;;;1.85;;
62990;SDS011;49084;48.204;16.202;2022-09-29T17:43:16;2.25;;;1.40;;
62990;SDS011;49084;48.204;16.202;2022-09-29T17:45:42;1.95;;;1.20;;
62990;SDS011;49084;48.204;16.202;2022-09-29T17:48:09;4.53;;;1.65;;
62990;SDS011;49084;48.204;16.202;2022-09-29T17:50:39;1.67;;;0.85;;
62990;SDS011;49084;48.204;16.202;2022-09-29T17:53:18;1.38;;;0.70;;
62990;SDS011;49084;48.204;16.202;2022-09-29T17:55:44;1.58;;;0.98;;
62990;SDS011;49084;48.204;16.202;2022-09-29T17:58:13;3.25;;;1.30;;
62990;SDS011;49084;48.204;16.202;2022-09-29T18:00:40;1.30;;;1.20;;
62990;SDS011;49084;48.204;16.202;2022-09-29T18:03:08;1.70;;;0.80;;
62990;SDS011;49084;48.204;16.202;2022-09-29T18:05:37;0.95;;;0.80;;
62990;SDS011;49084;48.204;16.202;2022-09-29T18:08:09;1.38;;;0.88;;
62990;SDS011;49084;48.204;16.202;2022-09-29T18:10:56;1.65;;;0.88;;
62990;SDS011;49084;48.204;16.202;2022-09-29T18:13:24;3.03;;;1.40;;
62990;SDS011;49084;48.204;16.202;2022-09-29T18:15:51;2.00;;;1.33;;
62990;SDS011;49084;48.204;16.202;2022-09-29T18:18:20;2.47;;;1.38;;
62990;SDS011;49084;48.204;16.202;2022-09-29T18:20:46;1.85;;;1.00;;
62990;SDS011;49084;48.204;16.202;2022-09-29T18:23:14;7.68;;;1.48;;
62990;SDS011;49084;48.204;16.202;2022-09-29T18:25:41;4.30;;;1.35;;
62990;SDS011;49084;48.204;16.202;2022-09-29T18:28:09;2.45;;;1.17;;
62990;SDS011;49084;48.204;16.202;2022-09-29T18:30:36;4.95;;;1.75;;
62990;SDS011;49084;48.204;16.202;2022-09-29T18:33:09;1.67;;;1.42;;
62990;SDS011;49084;48.204;16.202;2022-09-29T18:35:38;1.45;;;1.10;;
62990;SDS011;49084;48.204;16.202;2022-09-29T18:38:06;4.00;;;1.48;;
62990;SDS011;49084;48.204;16.202;2022-09-29T18:40:32;4.18;;;1.63;;
62990;SDS011;49084;48.204;16.202;2022-09-29T18:42:59;3.03;;;1.98;;
62990;SDS011;49084;48.204;16.202;2022-09-29T18:45:26;6.72;;;2.10;;
62990;SDS011;49084;48.204;16.202;2022-09-29T18:50:28;3.33;;;2.10;;
62990;SDS011;49084;48.204;16.202;2022-09-29T18:53:07;1.70;;;1.48;;
62990;SDS011;49084;48.204;16.202;2022-09-29T18:55:40;8.70;;;1.90;;
62990;SDS011;49084;48.204;16.202;2022-09-29T18:58:06;2.67;;;1.58;;
62990;SDS011;49084;48.204;16.202;2022-09-29T19:00:37;3.60;;;1.23;;
62990;SDS011;49084;48.204;16.202;2022-09-29T19:03:06;1.40;;;1.30;;
62990;SDS011;49084;48.204;16.202;2022-09-29T19:05:33;5.35;;;2.00;;
62990;SDS011;49084;48.204;16.202;2022-09-29T19:08:00;1.05;;;1.00;;
62990;SDS011;49084;48.204;16.202;2022-09-29T19:10:28;1.77;;;1.10;;
62990;SDS011;49084;48.204;16.202;2022-09-29T19:12:56;3.90;;;1.45;;
62990;SDS011;49084;48.204;16.202;2022-09-29T19:15:28;4.80;;;1.30;;
62990;SDS011;49084;48.204;16.202;2022-09-29T19:17:55;3.03;;;1.55;;
62990;SDS011;49084;48.204;16.202;2022-09-29T19:20:25;1.30;;;1.10;;
62990;SDS011;49084;48.204;16.202;2022-09-29T19:22:52;2.17;;;1.33;;
62990;SDS011;49084;48.204;16.202;2022-09-29T19:25:23;2.83;;;1.27;;
62990;SDS011;49084;48.204;16.202;2022-09-29T19:27:53;3.95;;;1.10;;
62990;SDS011;49084;48.204;16.202;2022-09-29T19:30:24;5.35;;;1.80;;
62990;SDS011;49084;48.204;16.202;2022-09-29T19:32:50;2.92;;;1.50;;
62990;SDS011;49084;48.204;16.202;2022-09-29T19:35:19;2.80;;;1.33;;
62990;SDS011;49084;48.204;16.202;2022-09-29T19:37:46;3.50;;;2.00;;
62990;SDS011;49084;48.204;16.202;2022-09-29T19:40:16;3.58;;;1.60;;
62990;SDS011;49084;48.204;16.202;2022-09-29T19:42:45;4.57;;;2.30;;
62990;SDS011;49084;48.204;16.202;2022-09-29T19:45:12;2.08;;;1.50;;
62990;SDS011;49084;48.204;16.202;2022-09-29T19:47:38;4.32;;;1.75;;
62990;SDS011;49084;48.204;16.202;2022-09-29T19:50:04;3.53;;;1.88;;